sensor_id;sensor_type;location;lat;lon;timestamp;pressure;altitude;pressure_sealevel;temperature
68127;BMP180;54931;52.098;21.006;2024-01-16T00:00:37;98052.80;;;-2.40
68127;BMP180;54931;52.098;21.006;2024-01-16T00:03:25;98076.40;;;-2.38
68127;BMP180;54931;52.098;21.006;2024-01-16T00:05:52;98078.60;;;-2.40
68127;BMP180;54931;52.098;21.006;2024-01-16T00:08:20;98080.00;;;-2.40
68127;BMP180;54931;52.098;21.006;2024-01-16T00:10:47;98080.20;;;-2.40
68127;BMP180;54931;52.098;21.006;2024-01-16T00:13:15;98085.40;;;-2.40
68127;BMP180;54931;52.098;21.006;2024-01-16T00:15:43;98093.20;;;-2.40
68127;BMP180;54931;52.098;21.006;2024-01-16T00:18:10;98108.80;;;-2.40
68127;BMP180;54931;52.098;21.006;2024-01-16T00:20:38;98119.40;;;-2.40
68127;BMP180;54931;52.098;21.006;2024-01-16T00:23:05;98117.60;;;-2.40
68127;BMP180;54931;52.098;21.006;2024-01-16T00:25:33;98119.60;;;-2.40
68127;BMP180;54931;52.098;21.006;2024-01-16T00:28:01;98133.40;;;-2.40
68127;BMP180;54931;52.098;21.006;2024-01-16T00:30:29;98130.00;;;-2.40
68127;BMP180;54931;52.098;21.006;2024-01-16T00:32:57;98142.60;;;-2.40
68127;BMP180;54931;52.098;21.006;2024-01-16T00:35:25;98133.00;;;-2.40
68127;BMP180;54931;52.098;21.006;2024-01-16T00:37:53;98150.40;;;-2.40
68127;BMP180;54931;52.098;21.006;2024-01-16T00:40:20;98146.60;;;-2.46
68127;BMP180;54931;52.098;21.006;2024-01-16T00:42:48;98150.40;;;-2.42
68127;BMP180;54931;52.098;21.006;2024-01-16T00:45:15;98162.20;;;-2.42
68127;BMP180;54931;52.098;21.006;2024-01-16T00:47:44;98162.80;;;-2.50
68127;BMP180;54931;52.098;21.006;2024-01-16T00:50:11;98162.40;;;-2.50
68127;BMP180;54931;52.098;21.006;2024-01-16T00:52:39;98176.60;;;-2.50
68127;BMP180;54931;52.098;21.006;2024-01-16T00:55:07;98169.60;;;-2.50
68127;BMP180;54931;52.098;21.006;2024-01-16T00:57:35;98174.60;;;-2.50
68127;BMP180;54931;52.098;21.006;2024-01-16T01:00:03;98180.20;;;-2.50
68127;BMP180;54931;52.098;21.006;2024-01-16T01:02:32;98189.60;;;-2.50
68127;BMP180;54931;52.098;21.006;2024-01-16T01:05:00;98184.80;;;-2.50
68127;BMP180;54931;52.098;21.006;2024-01-16T01:07:31;98187.60;;;-2.50
68127;BMP180;54931;52.098;21.006;2024-01-16T01:09:58;98179.00;;;-2.50
68127;BMP180;54931;52.098;21.006;2024-01-16T01:12:26;98186.20;;;-2.50
68127;BMP180;54931;52.098;21.006;2024-01-16T01:14:53;98203.60;;;-2.50
68127;BMP180;54931;52.098;21.006;2024-01-16T01:17:21;98202.80;;;-2.50
68127;BMP180;54931;52.098;21.006;2024-01-16T01:19:48;98203.20;;;-2.50
68127;BMP180;54931;52.098;21.006;2024-01-16T01:22:16;98205.60;;;-2.50
68127;BMP180;54931;52.098;21.006;2024-01-16T01:24:43;98208.20;;;-2.54
68127;BMP180;54931;52.098;21.006;2024-01-16T01:27:11;98212.80;;;-2.60
68127;BMP180;54931;52.098;21.006;2024-01-16T01:29:38;98212.00;;;-2.60
68127;BMP180;54931;52.098;21.006;2024-01-16T01:32:06;98227.20;;;-2.60
68127;BMP180;54931;52.098;21.006;2024-01-16T01:34:33;98230.60;;;-2.60
68127;BMP180;54931;52.098;21.006;2024-01-16T01:37:01;98228.60;;;-2.68
68127;BMP180;54931;52.098;21.006;2024-01-16T01:39:29;98229.60;;;-2.70
68127;BMP180;54931;52.098;21.006;2024-01-16T01:41:57;98239.00;;;-2.70
68127;BMP180;54931;52.098;21.006;2024-01-16T01:44:25;98245.40;;;-2.68
68127;BMP180;54931;52.098;21.006;2024-01-16T01:46:56;98255.00;;;-2.60
68127;BMP180;54931;52.098;21.006;2024-01-16T01:49:25;98247.80;;;-2.70
68127;BMP180;54931;52.098;21.006;2024-01-16T01:51:54;98257.60;;;-2.66
68127;BMP180;54931;52.098;21.006;2024-01-16T01:54:23;98259.60;;;-2.70
68127;BMP180;54931;52.098;21.006;2024-01-16T01:56:51;98268.00;;;-2.70
68127;BMP180;54931;52.098;21.006;2024-01-16T01:59:19;98279.60;;;-2.76
68127;BMP180;54931;52.098;21.006;2024-01-16T02:01:51;98287.40;;;-2.80
68127;BMP180;54931;52.098;21.006;2024-01-16T02:04:22;98290.00;;;-2.80
68127;BMP180;54931;52.098;21.006;2024-01-16T02:06:52;98295.00;;;-2.80
68127;BMP180;54931;52.098;21.006;2024-01-16T02:09:20;98303.80;;;-2.84
68127;BMP180;54931;52.098;21.006;2024-01-16T02:11:47;98312.20;;;-2.86
68127;BMP180;54931;52.098;21.006;2024-01-16T02:14:15;98317.20;;;-2.86
68127;BMP180;54931;52.098;21.006;2024-01-16T02:16:42;98315.60;;;-2.90
68127;BMP180;54931;52.098;21.006;2024-01-16T02:19:12;98305.00;;;-2.92
68127;BMP180;54931;52.098;21.006;2024-01-16T02:21:47;98318.40;;;-2.96
68127;BMP180;54931;52.098;21.006;2024-01-16T02:24:19;98319.40;;;-3.00
68127;BMP180;54931;52.098;21.006;2024-01-16T02:26:46;98323.40;;;-3.10
68127;BMP180;54931;52.098;21.006;2024-01-16T02:29:14;98334.40;;;-3.18
68127;BMP180;54931;52.098;21.006;2024-01-16T02:31:43;98328.40;;;-3.20
68127;BMP180;54931;52.098;21.006;2024-01-16T02:34:11;98336.00;;;-3.20
68127;BMP180;54931;52.098;21.006;2024-01-16T02:36:38;98342.80;;;-3.30
68127;BMP180;54931;52.098;21.006;2024-01-16T02:39:06;98351.80;;;-3.30
68127;BMP180;54931;52.098;21.006;2024-01-16T02:41:33;98345.80;;;-3.40
68127;BMP180;54931;52.098;21.006;2024-01-16T02:44:01;98352.40;;;-3.44
68127;BMP180;54931;52.098;21.006;2024-01-16T02:46:28;98363.40;;;-3.50
68127;BMP180;54931;52.098;21.006;2024-01-16T02:48:56;98356.00;;;-3.58
68127;BMP180;54931;52.098;21.006;2024-01-16T02:51:23;98361.40;;;-3.66
68127;BMP180;54931;52.098;21.006;2024-01-16T02:53:51;98366.60;;;-3.70
68127;BMP180;54931;52.098;21.006;2024-01-16T02:56:18;98377.60;;;-3.72
68127;BMP180;54931;52.098;21.006;2024-01-16T02:58:46;98373.40;;;-3.80
68127;BMP180;54931;52.098;21.006;2024-01-16T03:01:14;98376.20;;;-3.80
68127;BMP180;54931;52.098;21.006;2024-01-16T03:03:42;98382.80;;;-3.80
68127;BMP180;54931;52.098;21.006;2024-01-16T03:06:10;98386.00;;;-3.80
68127;BMP180;54931;52.098;21.006;2024-01-16T03:08:38;98394.20;;;-3.80
68127;BMP180;54931;52.098;21.006;2024-01-16T03:11:05;98399.20;;;-3.80
68127;BMP180;54931;52.098;21.006;2024-01-16T03:13:33;98402.60;;;-3.80
68127;BMP180;54931;52.098;21.006;2024-01-16T03:16:00;98406.20;;;-3.80
68127;BMP180;54931;52.098;21.006;2024-01-16T03:18:28;98406.20;;;-3.80
68127;BMP180;54931;52.098;21.006;2024-01-16T03:20:55;98410.20;;;-3.90
68127;BMP180;54931;52.098;21.006;2024-01-16T03:23:23;98415.20;;;-3.90
68127;BMP180;54931;52.098;21.006;2024-01-16T03:25:50;98409.60;;;-3.90
68127;BMP180;54931;52.098;21.006;2024-01-16T03:28:18;98422.80;;;-3.90
68127;BMP180;54931;52.098;21.006;2024-01-16T03:30:45;98419.00;;;-3.90
68127;BMP180;54931;52.098;21.006;2024-01-16T03:33:12;98415.60;;;-3.96
68127;BMP180;54931;52.098;21.006;2024-01-16T03:35:40;98428.60;;;-4.00
68127;BMP180;54931;52.098;21.006;2024-01-16T03:38:07;98431.80;;;-4.00
68127;BMP180;54931;52.098;21.006;2024-01-16T03:40:35;98437.20;;;-4.00
68127;BMP180;54931;52.098;21.006;2024-01-16T03:43:03;98433.60;;;-4.00
68127;BMP180;54931;52.098;21.006;2024-01-16T03:45:32;98443.60;;;-4.10
68127;BMP180;54931;52.098;21.006;2024-01-16T03:47:59;98450.20;;;-4.10
68127;BMP180;54931;52.098;21.006;2024-01-16T03:50:27;98451.20;;;-4.12
68127;BMP180;54931;52.098;21.006;2024-01-16T03:52:54;98455.80;;;-4.20
68127;BMP180;54931;52.098;21.006;2024-01-16T03:55:22;98457.80;;;-4.20
68127;BMP180;54931;52.098;21.006;2024-01-16T03:57:50;98462.60;;;-4.20
68127;BMP180;54931;52.098;21.006;2024-01-16T04:00:18;98467.20;;;-4.30
68127;BMP180;54931;52.098;21.006;2024-01-16T04:02:45;98471.60;;;-4.30
68127;BMP180;54931;52.098;21.006;2024-01-16T04:05:13;98477.40;;;-4.40
68127;BMP180;54931;52.098;21.006;2024-01-16T04:07:40;98476.40;;;-4.40
68127;BMP180;54931;52.098;21.006;2024-01-16T04:10:09;98479.80;;;-4.50
68127;BMP180;54931;52.098;21.006;2024-01-16T04:12:36;98491.00;;;-4.50
68127;BMP180;54931;52.098;21.006;2024-01-16T04:15:05;98494.40;;;-4.60
68127;BMP180;54931;52.098;21.006;2024-01-16T04:17:32;98504.20;;;-4.60
68127;BMP180;54931;52.098;21.006;2024-01-16T04:20:00;98507.80;;;-4.62
68127;BMP180;54931;52.098;21.006;2024-01-16T04:22:27;98509.20;;;-4.68
68127;BMP180;54931;52.098;21.006;2024-01-16T04:24:55;98512.80;;;-4.70
68127;BMP180;54931;52.098;21.006;2024-01-16T04:27:22;98525.00;;;-4.70
68127;BMP180;54931;52.098;21.006;2024-01-16T04:29:50;98530.60;;;-4.78
68127;BMP180;54931;52.098;21.006;2024-01-16T04:32:17;98534.40;;;-4.80
68127;BMP180;54931;52.098;21.006;2024-01-16T04:34:45;98534.40;;;-4.90
68127;BMP180;54931;52.098;21.006;2024-01-16T04:37:13;98538.00;;;-4.98
68127;BMP180;54931;52.098;21.006;2024-01-16T04:39:40;98539.60;;;-5.00
68127;BMP180;54931;52.098;21.006;2024-01-16T04:42:08;98540.20;;;-5.08
68127;BMP180;54931;52.098;21.006;2024-01-16T04:44:36;98538.40;;;-5.10
68127;BMP180;54931;52.098;21.006;2024-01-16T04:47:04;98543.80;;;-5.18
68127;BMP180;54931;52.098;21.006;2024-01-16T04:49:32;98544.60;;;-5.20
68127;BMP180;54931;52.098;21.006;2024-01-16T04:51:59;98554.60;;;-5.20
68127;BMP180;54931;52.098;21.006;2024-01-16T04:54:28;98553.80;;;-5.30
68127;BMP180;54931;52.098;21.006;2024-01-16T04:56:55;98556.80;;;-5.40
68127;BMP180;54931;52.098;21.006;2024-01-16T04:59:23;98565.60;;;-5.44
68127;BMP180;54931;52.098;21.006;2024-01-16T05:01:51;98577.40;;;-5.50
68127;BMP180;54931;52.098;21.006;2024-01-16T05:04:19;98582.00;;;-5.60
68127;BMP180;54931;52.098;21.006;2024-01-16T05:06:51;98587.20;;;-5.64
68127;BMP180;54931;52.098;21.006;2024-01-16T05:09:19;98589.80;;;-5.64
68127;BMP180;54931;52.098;21.006;2024-01-16T05:11:47;98598.00;;;-5.60
68127;BMP180;54931;52.098;21.006;2024-01-16T05:14:14;98595.20;;;-5.60
68127;BMP180;54931;52.098;21.006;2024-01-16T05:16:42;98600.40;;;-5.60
68127;BMP180;54931;52.098;21.006;2024-01-16T05:19:09;98605.40;;;-5.60
68127;BMP180;54931;52.098;21.006;2024-01-16T05:21:37;98607.20;;;-5.58
68127;BMP180;54931;52.098;21.006;2024-01-16T05:24:08;98608.60;;;-5.50
68127;BMP180;54931;52.098;21.006;2024-01-16T05:26:36;98612.60;;;-5.50
68127;BMP180;54931;52.098;21.006;2024-01-16T05:29:03;98615.40;;;-5.50
68127;BMP180;54931;52.098;21.006;2024-01-16T05:31:30;98623.60;;;-5.50
68127;BMP180;54931;52.098;21.006;2024-01-16T05:33:58;98633.00;;;-5.58
68127;BMP180;54931;52.098;21.006;2024-01-16T05:36:26;98648.00;;;-5.60
68127;BMP180;54931;52.098;21.006;2024-01-16T05:38:54;98647.40;;;-5.60
68127;BMP180;54931;52.098;21.006;2024-01-16T05:41:21;98648.00;;;-5.70
68127;BMP180;54931;52.098;21.006;2024-01-16T05:43:49;98656.20;;;-5.70
68127;BMP180;54931;52.098;21.006;2024-01-16T05:46:18;98658.40;;;-5.80
68127;BMP180;54931;52.098;21.006;2024-01-16T05:48:45;98667.40;;;-5.90
68127;BMP180;54931;52.098;21.006;2024-01-16T05:51:13;98668.00;;;-5.90
68127;BMP180;54931;52.098;21.006;2024-01-16T05:53:41;98669.20;;;-6.00
68127;BMP180;54931;52.098;21.006;2024-01-16T05:56:08;98671.60;;;-6.10
68127;BMP180;54931;52.098;21.006;2024-01-16T05:58:36;98672.20;;;-6.14
68127;BMP180;54931;52.098;21.006;2024-01-16T06:01:06;98679.00;;;-6.20
68127;BMP180;54931;52.098;21.006;2024-01-16T06:03:33;98678.80;;;-6.30
68127;BMP180;54931;52.098;21.006;2024-01-16T06:06:01;98682.40;;;-6.30
68127;BMP180;54931;52.098;21.006;2024-01-16T06:08:28;98684.60;;;-6.38
68127;BMP180;54931;52.098;21.006;2024-01-16T06:10:57;98682.00;;;-6.40
68127;BMP180;54931;52.098;21.006;2024-01-16T06:13:25;98681.40;;;-6.50
68127;BMP180;54931;52.098;21.006;2024-01-16T06:15:52;98687.40;;;-6.50
68127;BMP180;54931;52.098;21.006;2024-01-16T06:18:20;98691.80;;;-6.56
68127;BMP180;54931;52.098;21.006;2024-01-16T06:20:47;98698.40;;;-6.52
68127;BMP180;54931;52.098;21.006;2024-01-16T06:23:14;98702.80;;;-6.54
68127;BMP180;54931;52.098;21.006;2024-01-16T06:25:42;98713.20;;;-6.52
68127;BMP180;54931;52.098;21.006;2024-01-16T06:28:09;98719.20;;;-6.50
68127;BMP180;54931;52.098;21.006;2024-01-16T06:30:37;98714.00;;;-6.50
68127;BMP180;54931;52.098;21.006;2024-01-16T06:33:04;98716.20;;;-6.50
68127;BMP180;54931;52.098;21.006;2024-01-16T06:35:32;98716.40;;;-6.50
68127;BMP180;54931;52.098;21.006;2024-01-16T06:37:59;98724.80;;;-6.40
68127;BMP180;54931;52.098;21.006;2024-01-16T06:40:27;98736.00;;;-6.36
68127;BMP180;54931;52.098;21.006;2024-01-16T06:42:54;98733.60;;;-6.30
68127;BMP180;54931;52.098;21.006;2024-01-16T06:45:22;98736.80;;;-6.30
68127;BMP180;54931;52.098;21.006;2024-01-16T06:47:49;98740.80;;;-6.24
68127;BMP180;54931;52.098;21.006;2024-01-16T06:50:17;98743.40;;;-6.20
68127;BMP180;54931;52.098;21.006;2024-01-16T06:52:45;98751.20;;;-6.10
68127;BMP180;54931;52.098;21.006;2024-01-16T06:55:12;98756.40;;;-6.10
68127;BMP180;54931;52.098;21.006;2024-01-16T06:57:40;98760.60;;;-6.10
68127;BMP180;54931;52.098;21.006;2024-01-16T07:00:08;98763.60;;;-6.10
68127;BMP180;54931;52.098;21.006;2024-01-16T07:02:36;98771.00;;;-6.00
68127;BMP180;54931;52.098;21.006;2024-01-16T07:05:04;98770.80;;;-6.00
68127;BMP180;54931;52.098;21.006;2024-01-16T07:07:32;98772.60;;;-6.00
68127;BMP180;54931;52.098;21.006;2024-01-16T07:09:59;98775.00;;;-6.00
68127;BMP180;54931;52.098;21.006;2024-01-16T07:12:27;98783.20;;;-6.00
68127;BMP180;54931;52.098;21.006;2024-01-16T07:14:54;98790.80;;;-5.92
68127;BMP180;54931;52.098;21.006;2024-01-16T07:17:22;98798.00;;;-5.90
68127;BMP180;54931;52.098;21.006;2024-01-16T07:19:50;98803.80;;;-5.90
68127;BMP180;54931;52.098;21.006;2024-01-16T07:22:18;98805.80;;;-5.82
68127;BMP180;54931;52.098;21.006;2024-01-16T07:24:45;98813.80;;;-5.80
68127;BMP180;54931;52.098;21.006;2024-01-16T07:27:13;98819.60;;;-5.70
68127;BMP180;54931;52.098;21.006;2024-01-16T07:29:40;98829.40;;;-5.70
68127;BMP180;54931;52.098;21.006;2024-01-16T07:32:09;98829.60;;;-5.60
68127;BMP180;54931;52.098;21.006;2024-01-16T07:34:38;98829.80;;;-5.60
68127;BMP180;54931;52.098;21.006;2024-01-16T07:37:05;98835.80;;;-5.56
68127;BMP180;54931;52.098;21.006;2024-01-16T07:39:33;98837.40;;;-5.58
68127;BMP180;54931;52.098;21.006;2024-01-16T07:42:00;98840.40;;;-5.60
68127;BMP180;54931;52.098;21.006;2024-01-16T07:44:28;98844.20;;;-5.60
68127;BMP180;54931;52.098;21.006;2024-01-16T07:46:55;98845.00;;;-5.60
68127;BMP180;54931;52.098;21.006;2024-01-16T07:49:23;98854.20;;;-5.60
68127;BMP180;54931;52.098;21.006;2024-01-16T07:51:51;98852.20;;;-5.64
68127;BMP180;54931;52.098;21.006;2024-01-16T07:54:18;98865.20;;;-5.60
68127;BMP180;54931;52.098;21.006;2024-01-16T07:56:46;98868.40;;;-5.60
68127;BMP180;54931;52.098;21.006;2024-01-16T07:59:14;98854.20;;;-5.30
68127;BMP180;54931;52.098;21.006;2024-01-16T08:01:41;98860.20;;;-4.90
68127;BMP180;54931;52.098;21.006;2024-01-16T08:04:09;98867.20;;;-4.60
68127;BMP180;54931;52.098;21.006;2024-01-16T08:06:37;98873.60;;;-4.14
68127;BMP180;54931;52.098;21.006;2024-01-16T08:09:05;98874.00;;;-3.72
68127;BMP180;54931;52.098;21.006;2024-01-16T08:11:33;98879.20;;;-3.50
68127;BMP180;54931;52.098;21.006;2024-01-16T08:14:03;98884.80;;;-3.40
68127;BMP180;54931;52.098;21.006;2024-01-16T08:16:31;98890.60;;;-3.30
68127;BMP180;54931;52.098;21.006;2024-01-16T08:18:58;98897.60;;;-2.94
68127;BMP180;54931;52.098;21.006;2024-01-16T08:21:26;98905.80;;;-2.64
68127;BMP180;54931;52.098;21.006;2024-01-16T08:23:53;98909.00;;;-2.50
68127;BMP180;54931;52.098;21.006;2024-01-16T08:26:21;98921.40;;;-2.40
68127;BMP180;54931;52.098;21.006;2024-01-16T08:28:49;98918.80;;;-2.24
68127;BMP180;54931;52.098;21.006;2024-01-16T08:31:19;98917.60;;;-2.30
68127;BMP180;54931;52.098;21.006;2024-01-16T08:33:47;98922.80;;;-2.30
68127;BMP180;54931;52.098;21.006;2024-01-16T08:36:14;98936.00;;;-2.20
68127;BMP180;54931;52.098;21.006;2024-01-16T08:38:42;98941.80;;;-1.84
68127;BMP180;54931;52.098;21.006;2024-01-16T08:41:10;98944.20;;;-1.74
68127;BMP180;54931;52.098;21.006;2024-01-16T08:43:38;98950.40;;;-1.90
68127;BMP180;54931;52.098;21.006;2024-01-16T08:46:06;98952.20;;;-1.90
68127;BMP180;54931;52.098;21.006;2024-01-16T08:48:34;98954.60;;;-1.80
68127;BMP180;54931;52.098;21.006;2024-01-16T08:51:11;98943.00;;;-1.82
68127;BMP180;54931;52.098;21.006;2024-01-16T08:53:46;98957.60;;;-1.86
68127;BMP180;54931;52.098;21.006;2024-01-16T08:56:15;98954.40;;;-1.78
68127;BMP180;54931;52.098;21.006;2024-01-16T08:58:45;98961.80;;;-1.72
68127;BMP180;54931;52.098;21.006;2024-01-16T09:01:15;98965.80;;;-1.72
68127;BMP180;54931;52.098;21.006;2024-01-16T09:03:46;98972.40;;;-1.60
68127;BMP180;54931;52.098;21.006;2024-01-16T09:06:16;98966.60;;;-1.78
68127;BMP180;54931;52.098;21.006;2024-01-16T09:08:43;98976.80;;;-1.80
68127;BMP180;54931;52.098;21.006;2024-01-16T09:11:11;98976.60;;;-1.86
68127;BMP180;54931;52.098;21.006;2024-01-16T09:13:39;98980.40;;;-1.70
68127;BMP180;54931;52.098;21.006;2024-01-16T09:16:06;98982.00;;;-1.80
68127;BMP180;54931;52.098;21.006;2024-01-16T09:18:34;98982.40;;;-2.00
68127;BMP180;54931;52.098;21.006;2024-01-16T09:21:03;98981.00;;;-2.00
68127;BMP180;54931;52.098;21.006;2024-01-16T09:23:30;98983.00;;;-1.90
68127;BMP180;54931;52.098;21.006;2024-01-16T09:25:59;98989.60;;;-1.90
68127;BMP180;54931;52.098;21.006;2024-01-16T09:28:27;98985.40;;;-1.72
68127;BMP180;54931;52.098;21.006;2024-01-16T09:30:56;98984.20;;;-1.70
68127;BMP180;54931;52.098;21.006;2024-01-16T09:33:24;98993.80;;;-1.92
68127;BMP180;54931;52.098;21.006;2024-01-16T09:35:52;99000.00;;;-2.00
68127;BMP180;54931;52.098;21.006;2024-01-16T09:38:20;99002.00;;;-1.88
68127;BMP180;54931;52.098;21.006;2024-01-16T09:40:48;99001.40;;;-1.96
68127;BMP180;54931;52.098;21.006;2024-01-16T09:43:18;99010.80;;;-1.90
68127;BMP180;54931;52.098;21.006;2024-01-16T09:45:49;99003.20;;;-1.88
68127;BMP180;54931;52.098;21.006;2024-01-16T09:48:18;99015.40;;;-1.80
68127;BMP180;54931;52.098;21.006;2024-01-16T09:50:47;99015.00;;;-1.72
68127;BMP180;54931;52.098;21.006;2024-01-16T09:53:15;99022.20;;;-1.90
68127;BMP180;54931;52.098;21.006;2024-01-16T09:55:43;99024.40;;;-1.82
68127;BMP180;54931;52.098;21.006;2024-01-16T09:58:12;99032.20;;;-2.00
68127;BMP180;54931;52.098;21.006;2024-01-16T10:00:43;99035.60;;;-1.90
68127;BMP180;54931;52.098;21.006;2024-01-16T10:03:14;99043.20;;;-2.00
68127;BMP180;54931;52.098;21.006;2024-01-16T10:05:44;99046.40;;;-1.82
68127;BMP180;54931;52.098;21.006;2024-01-16T10:08:12;99047.80;;;-1.70
68127;BMP180;54931;52.098;21.006;2024-01-16T10:10:41;99048.80;;;-1.76
68127;BMP180;54931;52.098;21.006;2024-01-16T10:13:08;99060.60;;;-1.80
68127;BMP180;54931;52.098;21.006;2024-01-16T10:15:37;99051.40;;;-1.86
68127;BMP180;54931;52.098;21.006;2024-01-16T10:18:04;99061.00;;;-1.80
68127;BMP180;54931;52.098;21.006;2024-01-16T10:20:33;99069.80;;;-1.64
68127;BMP180;54931;52.098;21.006;2024-01-16T10:23:01;99059.40;;;-1.60
68127;BMP180;54931;52.098;21.006;2024-01-16T10:25:30;99073.40;;;-1.50
68127;BMP180;54931;52.098;21.006;2024-01-16T10:28:05;99078.40;;;-1.54
68127;BMP180;54931;52.098;21.006;2024-01-16T10:30:35;99076.20;;;-1.50
68127;BMP180;54931;52.098;21.006;2024-01-16T10:33:15;99081.00;;;-1.50
68127;BMP180;54931;52.098;21.006;2024-01-16T10:35:43;99080.80;;;-1.64
68127;BMP180;54931;52.098;21.006;2024-01-16T10:38:20;99091.60;;;-1.80
68127;BMP180;54931;52.098;21.006;2024-01-16T10:41:14;99094.20;;;-2.00
68127;BMP180;54931;52.098;21.006;2024-01-16T10:43:43;99096.00;;;-2.28
68127;BMP180;54931;52.098;21.006;2024-01-16T10:46:16;99097.80;;;-2.34
68127;BMP180;54931;52.098;21.006;2024-01-16T10:48:59;99107.00;;;-2.40
68127;BMP180;54931;52.098;21.006;2024-01-16T10:51:28;99104.40;;;-2.44
68127;BMP180;54931;52.098;21.006;2024-01-16T10:54:04;99100.40;;;-2.50
68127;BMP180;54931;52.098;21.006;2024-01-16T10:56:44;99106.80;;;-2.46
68127;BMP180;54931;52.098;21.006;2024-01-16T10:59:34;99096.40;;;-2.54
68127;BMP180;54931;52.098;21.006;2024-01-16T11:02:10;99097.40;;;-2.58
68127;BMP180;54931;52.098;21.006;2024-01-16T11:04:40;99104.00;;;-2.70
68127;BMP180;54931;52.098;21.006;2024-01-16T11:07:09;99107.80;;;-2.60
68127;BMP180;54931;52.098;21.006;2024-01-16T11:09:38;99114.00;;;-2.70
68127;BMP180;54931;52.098;21.006;2024-01-16T11:12:08;99122.00;;;-2.72
68127;BMP180;54931;52.098;21.006;2024-01-16T11:14:40;99107.80;;;-2.80
68127;BMP180;54931;52.098;21.006;2024-01-16T11:17:09;99124.00;;;-2.98
68127;BMP180;54931;52.098;21.006;2024-01-16T11:19:47;99128.20;;;-3.04
68127;BMP180;54931;52.098;21.006;2024-01-16T11:22:17;99135.20;;;-3.00
68127;BMP180;54931;52.098;21.006;2024-01-16T11:25:10;99127.20;;;-3.10
68127;BMP180;54931;52.098;21.006;2024-01-16T11:27:42;99128.80;;;-3.10
68127;BMP180;54931;52.098;21.006;2024-01-16T11:30:12;99121.00;;;-3.10
68127;BMP180;54931;52.098;21.006;2024-01-16T11:32:41;99121.80;;;-3.10
68127;BMP180;54931;52.098;21.006;2024-01-16T11:35:11;99124.60;;;-3.00
68127;BMP180;54931;52.098;21.006;2024-01-16T11:37:43;99131.20;;;-2.90
68127;BMP180;54931;52.098;21.006;2024-01-16T11:42:51;99128.20;;;-2.70
68127;BMP180;54931;52.098;21.006;2024-01-16T11:48:14;99126.00;;;-2.72
68127;BMP180;54931;52.098;21.006;2024-01-16T11:50:43;99139.00;;;-2.80
68127;BMP180;54931;52.098;21.006;2024-01-16T11:53:10;99142.80;;;-2.70
68127;BMP180;54931;52.098;21.006;2024-01-16T11:59:55;99148.40;;;-2.86
68127;BMP180;54931;52.098;21.006;2024-01-16T12:02:55;99150.40;;;-2.90
68127;BMP180;54931;52.098;21.006;2024-01-16T12:05:23;99151.60;;;-2.72
68127;BMP180;54931;52.098;21.006;2024-01-16T12:07:53;99148.40;;;-2.80
68127;BMP180;54931;52.098;21.006;2024-01-16T12:10:24;99147.80;;;-2.80
68127;BMP180;54931;52.098;21.006;2024-01-16T12:12:58;99155.40;;;-2.80
68127;BMP180;54931;52.098;21.006;2024-01-16T12:15:26;99155.40;;;-2.80
68127;BMP180;54931;52.098;21.006;2024-01-16T12:18:01;99150.40;;;-2.82
68127;BMP180;54931;52.098;21.006;2024-01-16T12:20:34;99150.40;;;-2.94
68127;BMP180;54931;52.098;21.006;2024-01-16T12:23:05;99157.20;;;-3.00
68127;BMP180;54931;52.098;21.006;2024-01-16T12:25:35;99159.20;;;-3.10
68127;BMP180;54931;52.098;21.006;2024-01-16T12:28:07;99154.60;;;-3.10
68127;BMP180;54931;52.098;21.006;2024-01-16T12:30:38;99151.20;;;-3.12
68127;BMP180;54931;52.098;21.006;2024-01-16T12:33:13;99155.00;;;-3.20
68127;BMP180;54931;52.098;21.006;2024-01-16T12:35:42;99168.80;;;-3.20
68127;BMP180;54931;52.098;21.006;2024-01-16T12:38:13;99172.60;;;-3.20
68127;BMP180;54931;52.098;21.006;2024-01-16T12:40:49;99174.60;;;-3.12
68127;BMP180;54931;52.098;21.006;2024-01-16T12:43:18;99178.00;;;-3.20
68127;BMP180;54931;52.098;21.006;2024-01-16T12:45:54;99181.60;;;-3.20
68127;BMP180;54931;52.098;21.006;2024-01-16T12:48:25;99177.40;;;-3.02
68127;BMP180;54931;52.098;21.006;2024-01-16T12:51:02;99183.80;;;-2.80
68127;BMP180;54931;52.098;21.006;2024-01-16T12:53:30;99189.40;;;-2.70
68127;BMP180;54931;52.098;21.006;2024-01-16T12:56:01;99188.00;;;-2.90
68127;BMP180;54931;52.098;21.006;2024-01-16T12:58:37;99187.00;;;-3.00
68127;BMP180;54931;52.098;21.006;2024-01-16T13:01:29;99189.00;;;-3.00
68127;BMP180;54931;52.098;21.006;2024-01-16T13:03:57;99195.80;;;-3.00
68127;BMP180;54931;52.098;21.006;2024-01-16T13:06:26;99198.80;;;-3.00
68127;BMP180;54931;52.098;21.006;2024-01-16T13:09:10;99194.40;;;-3.00
68127;BMP180;54931;52.098;21.006;2024-01-16T13:11:46;99202.00;;;-2.80
68127;BMP180;54931;52.098;21.006;2024-01-16T13:14:14;99199.20;;;-3.00
68127;BMP180;54931;52.098;21.006;2024-01-16T13:16:41;99194.60;;;-3.20
68127;BMP180;54931;52.098;21.006;2024-01-16T13:19:09;99195.80;;;-3.30
68127;BMP180;54931;52.098;21.006;2024-01-16T13:21:38;99197.00;;;-3.40
68127;BMP180;54931;52.098;21.006;2024-01-16T13:24:07;99200.00;;;-3.50
68127;BMP180;54931;52.098;21.006;2024-01-16T13:26:36;99204.80;;;-3.60
68127;BMP180;54931;52.098;21.006;2024-01-16T13:29:05;99204.40;;;-3.78
68127;BMP180;54931;52.098;21.006;2024-01-16T13:31:33;99209.80;;;-3.90
68127;BMP180;54931;52.098;21.006;2024-01-16T13:34:00;99217.20;;;-3.90
68127;BMP180;54931;52.098;21.006;2024-01-16T13:36:28;99221.80;;;-3.90
68127;BMP180;54931;52.098;21.006;2024-01-16T13:38:56;99225.80;;;-3.98
68127;BMP180;54931;52.098;21.006;2024-01-16T13:41:24;99227.00;;;-4.00
68127;BMP180;54931;52.098;21.006;2024-01-16T13:43:52;99230.60;;;-4.00
68127;BMP180;54931;52.098;21.006;2024-01-16T13:46:20;99230.80;;;-4.00
68127;BMP180;54931;52.098;21.006;2024-01-16T13:48:49;99238.60;;;-4.10
68127;BMP180;54931;52.098;21.006;2024-01-16T13:51:17;99240.40;;;-4.10
68127;BMP180;54931;52.098;21.006;2024-01-16T13:53:46;99247.80;;;-4.16
68127;BMP180;54931;52.098;21.006;2024-01-16T13:56:13;99252.00;;;-4.20
68127;BMP180;54931;52.098;21.006;2024-01-16T13:58:41;99257.00;;;-4.20
68127;BMP180;54931;52.098;21.006;2024-01-16T14:01:09;99263.20;;;-4.22
68127;BMP180;54931;52.098;21.006;2024-01-16T14:03:37;99266.00;;;-4.30
68127;BMP180;54931;52.098;21.006;2024-01-16T14:06:06;99271.40;;;-4.30
68127;BMP180;54931;52.098;21.006;2024-01-16T14:08:34;99276.00;;;-4.32
68127;BMP180;54931;52.098;21.006;2024-01-16T14:11:02;99274.80;;;-4.30
68127;BMP180;54931;52.098;21.006;2024-01-16T14:13:30;99274.40;;;-4.30
68127;BMP180;54931;52.098;21.006;2024-01-16T14:15:57;99280.80;;;-4.40